createdAt,value
2018-11-26T00:02:07.700Z,53.27
2018-11-26T00:04:35.796Z,61.10
2018-11-26T00:07:03.981Z,68.27
2018-11-26T00:09:32.057Z,56.43
2018-11-26T00:12:00.368Z,62.87
2018-11-26T00:14:28.445Z,72.93
2018-11-26T00:16:56.543Z,64.53
2018-11-26T00:19:24.729Z,52.10
2018-11-26T00:21:56.091Z,62.00
2018-11-26T00:24:24.164Z,72.30
2018-11-26T00:26:52.279Z,69.90
2018-11-26T00:29:20.536Z,63.43
2018-11-26T00:31:48.663Z,83.97
2018-11-26T00:34:16.752Z,69.27
2018-11-26T00:36:44.872Z,67.57
2018-11-26T00:39:13.104Z,69.17
2018-11-26T00:41:41.283Z,65.57
2018-11-26T00:44:09.417Z,57.20
2018-11-26T00:46:37.528Z,62.50
2018-11-26T00:49:05.596Z,57.50
2018-11-26T00:51:34.112Z,69.03
2018-11-26T00:54:02.355Z,62.60
2018-11-26T00:56:30.493Z,74.93
2018-11-26T00:58:58.592Z,57.73
2018-11-26T01:01:26.733Z,53.43
2018-11-26T01:03:54.837Z,73.87
2018-11-26T01:06:22.943Z,66.07
2018-11-26T01:08:51.024Z,71.73
2018-11-26T01:11:19.442Z,66.40
2018-11-26T01:13:47.523Z,82.57
2018-11-26T01:16:15.901Z,82.50
2018-11-26T01:18:44.007Z,91.13
2018-11-26T01:21:12.180Z,77.00
2018-11-26T01:23:40.478Z,84.97
2018-11-26T01:26:08.553Z,106.20
2018-11-26T01:28:36.677Z,117.97
2018-11-26T01:31:04.795Z,98.43
2018-11-26T01:33:32.913Z,98.57
2018-11-26T01:36:01.033Z,106.60
2018-11-26T01:38:29.145Z,94.00
2018-11-26T01:40:57.286Z,79.03
2018-11-26T01:43:25.628Z,94.50
2018-11-26T01:45:53.759Z,109.70
2018-11-26T01:48:21.856Z,99.70
2018-11-26T01:50:49.981Z,102.00
2018-11-26T01:53:18.118Z,92.10
2018-11-26T01:55:46.214Z,85.37
2018-11-26T01:58:14.322Z,78.37
2018-11-26T02:00:42.392Z,89.40
2018-11-26T02:03:10.495Z,93.27
2018-11-26T02:05:38.601Z,122.83
2018-11-26T02:08:06.990Z,101.07
2018-11-26T02:10:35.130Z,96.10
2018-11-26T02:13:03.208Z,90.33
2018-11-26T02:15:36.452Z,100.37
2018-11-26T02:18:04.560Z,92.53
2018-11-26T02:20:32.647Z,100.67
2018-11-26T02:23:00.784Z,113.40
2018-11-26T02:25:28.876Z,104.97
2018-11-26T02:27:57.006Z,108.30
2018-11-26T02:30:25.108Z,102.40
2018-11-26T02:32:54.205Z,91.03
2018-11-26T02:35:22.337Z,114.80
2018-11-26T02:37:51.425Z,100.33
2018-11-26T02:40:28.515Z,120.33
2018-11-26T02:42:56.618Z,106.20
2018-11-26T02:45:24.719Z,115.73
2018-11-26T02:47:52.864Z,117.43
2018-11-26T02:50:20.986Z,117.10
2018-11-26T02:52:49.063Z,116.43
2018-11-26T02:55:17.170Z,108.50
2018-11-26T02:57:45.288Z,114.07
2018-11-26T03:00:13.695Z,135.77
2018-11-26T03:02:41.784Z,116.03
2018-11-26T03:05:11.052Z,122.07
2018-11-26T03:07:39.397Z,124.07
2018-11-26T03:10:10.132Z,121.53
2018-11-26T03:12:39.044Z,129.00
2018-11-26T03:15:09.755Z,141.67
2018-11-26T03:17:38.403Z,123.17
2018-11-26T03:20:07.860Z,114.47
2018-11-26T03:22:35.974Z,129.87
2018-11-26T03:25:04.313Z,127.20
2018-11-26T03:27:32.504Z,120.70
2018-11-26T03:30:00.584Z,131.43
2018-11-26T03:32:28.710Z,110.50
2018-11-26T03:34:56.784Z,107.87
2018-11-26T03:37:24.901Z,112.80
2018-11-26T03:39:53.013Z,102.33
2018-11-26T03:42:21.108Z,124.20
2018-11-26T03:44:49.225Z,118.67
2018-11-26T03:47:17.441Z,108.83
2018-11-26T03:49:45.665Z,115.73
2018-11-26T03:52:13.789Z,107.47
2018-11-26T03:54:41.915Z,107.73
2018-11-26T03:57:10.099Z,96.20
2018-11-26T03:59:38.259Z,110.87
2018-11-26T04:02:06.417Z,97.00
2018-11-26T04:04:34.567Z,103.00
2018-11-26T04:07:02.941Z,98.00
2018-11-26T04:09:31.152Z,104.07
2018-11-26T04:11:59.393Z,102.97
2018-11-26T04:14:27.576Z,106.03
2018-11-26T04:16:55.764Z,103.83
2018-11-26T04:19:23.957Z,116.10
2018-11-26T04:21:52.331Z,88.93
2018-11-26T04:24:23.504Z,97.50
2018-11-26T04:26:52.053Z,95.13
2018-11-26T04:29:20.708Z,103.00
2018-11-26T04:31:49.430Z,101.77
2018-11-26T04:34:17.816Z,135.80
2018-11-26T04:36:45.987Z,100.83
2018-11-26T04:39:14.149Z,98.00
2018-11-26T04:41:42.316Z,103.00
2018-11-26T04:44:10.484Z,115.30
2018-11-26T04:46:39.497Z,88.73
2018-11-26T04:49:08.219Z,94.93
2018-11-26T04:51:36.388Z,93.57
2018-11-26T04:54:04.549Z,95.97
2018-11-26T04:56:32.702Z,128.30
2018-11-26T04:59:01.144Z,97.10
2018-11-26T05:01:29.665Z,123.53
2018-11-26T05:03:58.232Z,138.15
2018-11-26T05:06:26.560Z,116.73
2018-11-26T05:08:55.305Z,100.53
2018-11-26T05:11:23.489Z,82.30
2018-11-26T05:13:51.929Z,107.00
2018-11-26T05:16:20.302Z,107.52
2018-11-26T05:18:48.448Z,110.55
2018-11-26T05:21:16.706Z,120.65
2018-11-26T05:23:44.865Z,104.55
2018-11-26T05:26:13.078Z,113.70
2018-11-26T05:28:41.690Z,110.47
2018-11-26T05:31:10.090Z,112.15
2018-11-26T05:33:38.332Z,120.17
2018-11-26T05:36:06.486Z,119.93
2018-11-26T05:38:34.652Z,109.87
2018-11-26T05:41:02.825Z,108.22
2018-11-26T05:43:31.233Z,109.92
2018-11-26T05:45:59.365Z,111.50
2018-11-26T05:48:27.582Z,127.38
2018-11-26T05:50:55.733Z,110.03
2018-11-26T05:53:23.885Z,110.20
2018-11-26T05:55:52.006Z,121.97
2018-11-26T05:58:20.088Z,137.40
2018-11-26T06:00:48.241Z,116.73
2018-11-26T06:03:16.332Z,120.00
2018-11-26T06:05:44.445Z,140.60
2018-11-26T06:08:12.552Z,116.10
2018-11-26T06:10:41.554Z,133.22
2018-11-26T06:13:09.693Z,170.45
2018-11-26T06:15:37.800Z,125.35
2018-11-26T06:18:05.944Z,155.57
2018-11-26T06:20:34.060Z,126.75
2018-11-26T06:23:02.183Z,129.63
2018-11-26T06:25:30.307Z,135.93
2018-11-26T06:27:58.414Z,133.97
2018-11-26T06:30:26.518Z,130.45
2018-11-26T06:32:54.669Z,129.97
2018-11-26T06:35:23.169Z,145.65
2018-11-26T06:37:51.320Z,130.78
2018-11-26T06:40:20.738Z,116.00
2018-11-26T06:42:48.854Z,152.97
2018-11-26T06:45:18.063Z,135.00
2018-11-26T06:47:46.196Z,126.87
2018-11-26T06:50:15.582Z,155.22
2018-11-26T06:52:43.859Z,127.45
2018-11-26T06:55:16.969Z,104.40
2018-11-26T06:57:45.059Z,106.35
2018-11-26T07:00:15.248Z,112.37
2018-11-26T07:02:43.404Z,115.22
2018-11-26T07:05:13.780Z,156.15
2018-11-26T07:07:41.893Z,122.92
2018-11-26T07:10:10.947Z,103.10
2018-11-26T07:12:39.220Z,139.50
2018-11-26T07:15:09.746Z,96.15
2018-11-26T07:17:37.889Z,151.02
2018-11-26T07:20:08.848Z,166.62
2018-11-26T07:22:37.060Z,104.75
2018-11-26T07:25:07.347Z,154.35
2018-11-26T07:27:35.486Z,122.13
2018-11-26T07:30:05.006Z,171.77
2018-11-26T07:32:33.772Z,150.40
2018-11-26T07:35:02.581Z,160.35
2018-11-26T07:37:30.695Z,152.87
2018-11-26T07:39:59.124Z,157.43
2018-11-26T07:42:27.736Z,117.03
2018-11-26T07:44:56.047Z,146.28
2018-11-26T07:47:24.176Z,154.27
2018-11-26T07:49:52.259Z,143.40
2018-11-26T07:52:20.420Z,142.15
2018-11-26T07:54:48.566Z,140.88
2018-11-26T07:57:16.744Z,168.50
2018-11-26T07:59:44.849Z,131.70
2018-11-26T08:02:13.013Z,157.80
2018-11-26T08:04:41.413Z,162.77
2018-11-26T08:07:09.516Z,116.80
2018-11-26T08:09:37.651Z,121.62
2018-11-26T08:12:05.805Z,148.55
2018-11-26T08:14:33.916Z,133.65
2018-11-26T08:17:02.239Z,137.35
2018-11-26T08:19:30.378Z,196.60
2018-11-26T08:21:58.508Z,166.28
2018-11-26T08:24:26.629Z,146.77
2018-11-26T08:26:54.781Z,146.28
2018-11-26T08:29:22.871Z,159.72
2018-11-26T08:31:50.984Z,168.40
2018-11-26T08:34:19.157Z,135.88
2018-11-26T08:36:47.258Z,167.28
2018-11-26T08:39:18.634Z,166.43
2018-11-26T08:41:53.233Z,152.75
2018-11-26T08:44:27.564Z,155.63
2018-11-26T08:47:00.571Z,208.63
2018-11-26T08:49:28.895Z,170.70
2018-11-26T08:51:57.025Z,144.95
2018-11-26T08:54:25.144Z,128.55
2018-11-26T08:56:53.234Z,165.85
2018-11-26T08:59:21.355Z,145.17
2018-11-26T09:01:51.000Z,150.40
2018-11-26T09:04:19.987Z,134.67
2018-11-26T09:06:48.509Z,120.47
2018-11-26T09:09:16.661Z,90.05
2018-11-26T09:11:44.775Z,102.92
2018-11-26T09:14:12.890Z,129.63
2018-11-26T09:16:41.239Z,114.22
2018-11-26T09:19:09.379Z,112.72
2018-11-26T09:21:37.484Z,120.02
2018-11-26T09:24:05.624Z,82.72
2018-11-26T09:26:33.744Z,91.00
2018-11-26T09:29:01.898Z,117.97
2018-11-26T09:31:30.006Z,90.67
2018-11-26T09:33:58.161Z,108.07
2018-11-26T09:36:26.233Z,96.92
2018-11-26T09:38:54.362Z,97.65
2018-11-26T09:41:22.446Z,95.67
2018-11-26T09:43:50.537Z,117.10
2018-11-26T09:46:18.661Z,156.93
2018-11-26T09:48:46.808Z,87.27
2018-11-26T09:51:14.912Z,113.05
2018-11-26T09:53:43.075Z,116.75
2018-11-26T09:56:11.358Z,79.07
2018-11-26T09:58:39.913Z,94.15
2018-11-26T10:01:08.053Z,94.25
2018-11-26T10:03:36.189Z,73.10
2018-11-26T10:06:04.786Z,88.58
2018-11-26T10:08:32.924Z,88.55
2018-11-26T10:11:01.066Z,97.95
2018-11-26T10:13:29.154Z,65.20
2018-11-26T10:15:57.269Z,89.45
2018-11-26T10:18:25.360Z,84.77
2018-11-26T10:20:53.737Z,75.30
2018-11-26T10:23:21.856Z,78.75
2018-11-26T10:25:50.006Z,83.25
2018-11-26T10:28:18.160Z,83.25
2018-11-26T10:30:46.264Z,69.12
2018-11-26T10:33:15.034Z,83.33
2018-11-26T10:35:42.819Z,71.25
2018-11-26T10:38:11.015Z,110.68
2018-11-26T10:40:39.557Z,101.60
2018-11-26T10:43:11.750Z,95.87
2018-11-26T10:45:36.569Z,65.28
2018-11-26T10:48:05.956Z,79.77
2018-11-26T10:50:34.458Z,83.37
2018-11-26T10:53:02.554Z,77.60
2018-11-26T10:55:32.190Z,72.17
2018-11-26T10:58:01.777Z,57.80
2018-11-26T11:00:35.300Z,90.22
2018-11-26T11:03:03.436Z,66.85
2018-11-26T11:05:31.840Z,67.85
2018-11-26T11:08:00.038Z,66.65
2018-11-26T11:10:30.484Z,49.13
2018-11-26T11:12:58.728Z,102.78
2018-11-26T11:15:27.056Z,56.42
2018-11-26T11:17:55.260Z,47.78
2018-11-26T11:20:25.304Z,53.90
2018-11-26T11:22:53.435Z,67.50
2018-11-26T11:25:22.217Z,67.72
2018-11-26T11:27:51.112Z,64.03
2018-11-26T11:30:27.993Z,49.15
2018-11-26T11:32:56.181Z,45.52
2018-11-26T11:35:24.442Z,42.33
2018-11-26T11:37:53.319Z,56.10
2018-11-26T11:40:23.582Z,50.28
2018-11-26T11:42:51.727Z,51.08
2018-11-26T11:45:20.186Z,55.48
2018-11-26T11:47:48.305Z,218.65
2018-11-26T11:50:17.798Z,40.80
2018-11-26T11:52:46.224Z,58.33
2018-11-26T11:55:16.520Z,59.98
2018-11-26T11:57:44.725Z,49.50
2018-11-26T12:00:18.673Z,53.08
2018-11-26T12:02:46.798Z,47.25
2018-11-26T12:05:15.425Z,53.13
2018-11-26T12:07:43.633Z,56.25
2018-11-26T12:10:12.244Z,62.50
2018-11-26T12:12:40.556Z,53.90
2018-11-26T12:15:10.417Z,51.15
2018-11-26T12:17:38.587Z,56.83
2018-11-26T12:20:09.366Z,60.52
2018-11-26T12:22:37.795Z,64.53
2018-11-26T12:25:07.654Z,42.98
2018-11-26T12:27:35.790Z,45.35
2018-11-26T12:30:05.149Z,51.75
2018-11-26T12:32:33.349Z,75.72
2018-11-26T12:35:01.571Z,59.38
2018-11-26T12:37:29.702Z,70.85
2018-11-26T12:39:57.898Z,70.37
2018-11-26T12:42:26.398Z,64.17
2018-11-26T12:44:54.612Z,82.55
2018-11-26T12:47:22.868Z,63.60
2018-11-26T12:49:51.035Z,65.12
2018-11-26T12:52:19.205Z,71.25
2018-11-26T12:54:47.341Z,67.97
2018-11-26T12:57:15.910Z,61.68
2018-11-26T12:59:44.204Z,73.05
2018-11-26T13:02:12.499Z,71.20
2018-11-26T13:04:40.786Z,73.28
2018-11-26T13:07:08.962Z,71.77
2018-11-26T13:09:37.246Z,74.58
2018-11-26T13:12:05.726Z,74.30
2018-11-26T13:14:33.897Z,62.35
2018-11-26T13:17:02.147Z,67.55
2018-11-26T13:19:30.723Z,78.97
2018-11-26T13:21:59.393Z,65.75
2018-11-26T13:24:28.054Z,72.30
2018-11-26T13:26:56.753Z,75.20
2018-11-26T13:29:24.977Z,63.37
2018-11-26T13:31:53.398Z,73.92
2018-11-26T13:34:21.538Z,85.00
2018-11-26T13:36:49.778Z,77.22
2018-11-26T13:39:18.325Z,83.40
2018-11-26T13:41:46.882Z,78.75
2018-11-26T13:44:15.059Z,70.12
2018-11-26T13:46:43.350Z,97.12
2018-11-26T13:49:11.851Z,95.87
2018-11-26T13:51:40.071Z,110.12
2018-11-26T13:54:08.694Z,100.18
2018-11-26T13:56:36.969Z,92.20
2018-11-26T13:59:06.007Z,84.90
2018-11-26T14:01:34.363Z,114.92
2018-11-26T14:04:02.635Z,96.95
2018-11-26T14:06:30.943Z,85.40
2018-11-26T14:08:59.478Z,100.45
2018-11-26T14:11:28.250Z,91.08
2018-11-26T14:13:56.794Z,104.32
2018-11-26T14:16:25.039Z,102.38
2018-11-26T14:18:53.681Z,85.07
2018-11-26T14:21:21.575Z,78.17
2018-11-26T14:23:49.808Z,84.70
2018-11-26T14:26:18.402Z,74.25
2018-11-26T14:28:46.738Z,67.40
2018-11-26T14:31:15.145Z,61.95
2018-11-26T14:33:43.388Z,69.72
2018-11-26T14:36:11.664Z,61.15
2018-11-26T14:38:40.099Z,53.60
2018-11-26T14:41:08.592Z,98.80
2018-11-26T14:43:37.104Z,48.83
2018-11-26T14:46:05.803Z,44.63
2018-11-26T14:48:34.125Z,55.28
2018-11-26T14:51:02.371Z,49.83
2018-11-26T14:53:30.739Z,40.67
2018-11-26T14:55:59.183Z,51.02
2018-11-26T14:58:27.671Z,57.65
2018-11-26T15:00:56.022Z,43.92
2018-11-26T15:03:24.374Z,51.50
2018-11-26T15:05:52.731Z,44.60
2018-11-26T15:08:20.931Z,50.58
2018-11-26T15:10:49.137Z,54.73
2018-11-26T15:13:17.327Z,50.63
2018-11-26T15:15:45.526Z,40.70
2018-11-26T15:18:13.658Z,48.30
2018-11-26T15:20:42.009Z,59.45
2018-11-26T15:23:10.253Z,56.53
2018-11-26T15:25:38.431Z,45.08
2018-11-26T15:28:14.048Z,49.27
2018-11-26T15:30:42.923Z,53.65
2018-11-26T15:33:11.132Z,70.35
2018-11-26T15:35:42.723Z,61.83
2018-11-26T15:38:10.987Z,71.07
2018-11-26T15:40:39.655Z,66.42
2018-11-26T15:43:07.776Z,75.90
2018-11-26T15:45:36.456Z,62.85
2018-11-26T15:48:08.646Z,56.40
2018-11-26T15:50:36.892Z,65.83
2018-11-26T15:53:06.364Z,66.25
2018-11-26T15:55:34.714Z,62.48
2018-11-26T15:58:03.013Z,59.95
2018-11-26T16:00:31.337Z,62.35
2018-11-26T16:03:00.094Z,62.90
2018-11-26T16:05:29.749Z,56.15
2018-11-26T16:08:00.628Z,63.30
2018-11-26T16:10:28.875Z,54.50
2018-11-26T16:12:58.895Z,111.72
2018-11-26T16:15:29.713Z,74.95
2018-11-26T16:17:59.905Z,61.30
2018-11-26T16:20:28.501Z,47.67
2018-11-26T16:22:58.240Z,63.42
2018-11-26T16:25:28.190Z,71.33
2018-11-26T16:27:56.926Z,60.17
2018-11-26T16:30:25.887Z,54.83
2018-11-26T16:32:55.990Z,64.12
2018-11-26T16:35:28.847Z,56.28
2018-11-26T16:37:57.477Z,44.55
2018-11-26T16:40:28.299Z,45.75
2018-11-26T16:42:56.730Z,64.47
2018-11-26T16:45:26.930Z,57.95
2018-11-26T16:47:56.354Z,51.33
2018-11-26T16:50:26.638Z,58.23
2018-11-26T16:52:54.956Z,68.00
2018-11-26T16:55:23.283Z,60.50
2018-11-26T16:57:51.570Z,54.58
2018-11-26T17:00:21.696Z,59.35
2018-11-26T17:02:51.431Z,59.73
2018-11-26T17:05:25.572Z,47.15
2018-11-26T17:07:53.893Z,66.15
2018-11-26T17:10:23.608Z,47.78
2018-11-26T17:12:52.651Z,49.95
2018-11-26T17:15:20.952Z,57.05
2018-11-26T17:17:49.144Z,66.80
2018-11-26T17:20:17.907Z,55.52
2018-11-26T17:22:46.560Z,71.33
2018-11-26T17:25:15.692Z,55.60
2018-11-26T17:27:44.579Z,47.40
2018-11-26T17:30:15.988Z,62.30
2018-11-26T17:32:44.907Z,59.27
2018-11-26T17:35:14.638Z,56.10
2018-11-26T17:37:43.456Z,57.83
2018-11-26T17:40:17.838Z,58.75
2018-11-26T17:42:46.136Z,74.10
2018-11-26T17:45:14.893Z,68.78
2018-11-26T17:47:46.231Z,57.08
2018-11-26T17:50:16.931Z,63.05
2018-11-26T17:52:45.209Z,72.47
2018-11-26T17:55:13.473Z,58.68
2018-11-26T17:57:41.952Z,68.30
2018-11-26T18:00:44.091Z,67.37
2018-11-26T18:03:12.832Z,65.28
2018-11-26T18:05:41.696Z,51.88
2018-11-26T18:08:16.554Z,56.68
2018-11-26T18:10:47.157Z,61.15
2018-11-26T18:13:15.395Z,48.80
2018-11-26T18:15:43.746Z,51.60
2018-11-26T18:18:13.790Z,53.28
2018-11-26T18:20:42.843Z,52.43
2018-11-26T18:23:11.980Z,60.92
2018-11-26T18:25:41.742Z,63.35
2018-11-26T18:28:13.065Z,60.50
2018-11-26T18:30:43.546Z,53.52
2018-11-26T18:33:12.228Z,65.32
2018-11-26T18:35:41.578Z,55.45
2018-11-26T18:38:10.597Z,58.58
2018-11-26T18:40:40.394Z,51.42
2018-11-26T18:43:09.163Z,55.28
2018-11-26T18:45:38.558Z,67.78
2018-11-26T18:48:07.502Z,48.65
2018-11-26T18:50:35.903Z,52.98
2018-11-26T18:53:04.194Z,63.15
2018-11-26T18:55:32.458Z,59.20
2018-11-26T18:58:00.792Z,66.15
2018-11-26T19:00:31.624Z,52.25
2018-11-26T19:02:59.947Z,55.20
2018-11-26T19:05:28.358Z,52.48
2018-11-26T19:07:56.653Z,48.13
2018-11-26T19:10:28.003Z,42.30
2018-11-26T19:13:01.814Z,51.98
2018-11-26T19:15:32.189Z,48.05
2018-11-26T19:18:08.597Z,49.25
2018-11-26T19:20:36.826Z,62.03
2018-11-26T19:23:05.502Z,54.23
2018-11-26T19:25:33.988Z,47.62
2018-11-26T19:28:04.465Z,57.15
2018-11-26T19:30:32.750Z,43.05
2018-11-26T19:33:01.991Z,50.33
2018-11-26T19:35:30.453Z,43.50
2018-11-26T19:37:58.667Z,37.08
2018-11-26T19:40:27.331Z,49.30
2018-11-26T19:42:55.555Z,58.45
2018-11-26T19:45:23.844Z,62.95
2018-11-26T19:47:52.088Z,56.60
2018-11-26T19:50:20.665Z,54.90
2018-11-26T19:52:51.239Z,55.55
2018-11-26T19:55:23.965Z,52.95
2018-11-26T19:57:53.033Z,49.67
2018-11-26T20:00:30.765Z,66.70
2018-11-26T20:03:33.218Z,64.87
2018-11-26T20:06:08.970Z,63.83
2018-11-26T20:08:37.305Z,59.50
2018-11-26T20:11:06.391Z,78.17
2018-11-26T20:13:35.678Z,64.12
2018-11-26T20:16:21.651Z,47.25
2018-11-26T20:18:50.235Z,49.20
2018-11-26T20:21:18.628Z,59.13
2018-11-26T20:23:46.896Z,48.00
2018-11-26T20:26:15.149Z,56.15
2018-11-26T20:28:43.366Z,75.42
2018-11-26T20:31:11.779Z,44.05
2018-11-26T20:33:40.140Z,55.05
2018-11-26T20:36:10.324Z,53.65
2018-11-26T20:38:38.648Z,53.92
2018-11-26T20:41:08.106Z,61.53
2018-11-26T20:43:36.368Z,70.52
2018-11-26T20:46:04.658Z,60.12
2018-11-26T20:48:32.957Z,64.20
2018-11-26T20:51:01.444Z,55.55
2018-11-26T20:53:30.461Z,67.05
2018-11-26T20:55:59.615Z,53.63
2018-11-26T20:58:27.816Z,66.60
2018-11-26T21:00:56.168Z,59.63
2018-11-26T21:03:24.409Z,61.10
2018-11-26T21:05:53.177Z,65.08
2018-11-26T21:08:21.583Z,63.17
2018-11-26T21:10:49.924Z,66.55
2018-11-26T21:13:18.154Z,72.47
2018-11-26T21:15:46.516Z,69.40
2018-11-26T21:18:14.695Z,50.85
2018-11-26T21:20:45.488Z,55.90
2018-11-26T21:23:21.144Z,52.85
2018-11-26T21:25:49.608Z,56.55
2018-11-26T21:28:17.911Z,58.55
2018-11-26T21:30:51.617Z,68.47
2018-11-26T21:33:14.531Z,53.15
2018-11-26T21:35:42.837Z,54.42
2018-11-26T21:38:11.824Z,49.53
2018-11-26T21:40:40.812Z,58.60
2018-11-26T21:43:10.115Z,60.60
2018-11-26T21:45:43.419Z,57.35
2018-11-26T21:48:11.710Z,65.52
2018-11-26T21:50:41.313Z,73.25
2018-11-26T21:53:09.724Z,60.78
2018-11-26T21:55:37.987Z,50.90
2018-11-26T21:58:06.898Z,72.30
2018-11-26T22:00:35.454Z,56.10
2018-11-26T22:03:11.463Z,66.90
2018-11-26T22:05:41.090Z,61.63
2018-11-26T22:08:10.020Z,64.97
2018-11-26T22:10:39.332Z,62.00
2018-11-26T22:13:11.732Z,58.23
2018-11-26T22:15:40.294Z,48.70
2018-11-26T22:18:08.837Z,71.30
2018-11-26T22:20:37.295Z,61.23
2018-11-26T22:23:06.344Z,53.63
2018-11-26T22:25:34.591Z,69.37
2018-11-26T22:28:04.048Z,67.17
2018-11-26T22:30:33.150Z,62.85
2018-11-26T22:33:01.279Z,68.22
2018-11-26T22:35:29.469Z,54.55
2018-11-26T22:37:57.643Z,61.53
2018-11-26T22:40:26.699Z,70.95
2018-11-26T22:42:55.092Z,57.62
2018-11-26T22:45:25.050Z,70.62
2018-11-26T22:48:00.591Z,69.80
2018-11-26T22:50:28.806Z,67.15
2018-11-26T22:52:57.185Z,69.58
2018-11-26T22:55:25.480Z,48.68
2018-11-26T22:57:53.765Z,75.25
2018-11-26T23:00:30.155Z,55.00
2018-11-26T23:03:00.928Z,55.95
2018-11-26T23:05:29.290Z,60.60
2018-11-26T23:07:57.402Z,65.05
2018-11-26T23:10:25.691Z,62.40
2018-11-26T23:12:53.961Z,49.83
2018-11-26T23:15:22.257Z,46.65
2018-11-26T23:17:50.440Z,56.63
2018-11-26T23:20:19.680Z,69.07
2018-11-26T23:22:47.899Z,54.75
2018-11-26T23:25:18.018Z,53.45
2018-11-26T23:27:46.297Z,54.50
2018-11-26T23:30:17.482Z,49.55
2018-11-26T23:32:46.903Z,48.20
2018-11-26T23:35:15.032Z,45.35
2018-11-26T23:37:43.287Z,51.58
2018-11-26T23:40:12.396Z,56.85
2018-11-26T23:42:40.971Z,50.00
2018-11-26T23:45:10.635Z,50.95
2018-11-26T23:47:38.863Z,40.15
2018-11-26T23:50:08.710Z,42.75
2018-11-26T23:52:37.515Z,50.48
2018-11-26T23:55:07.186Z,51.50
2018-11-26T23:57:35.369Z,59.50
